Time;durP1;ratioP1;P1;durP2;ratioP2;P2;SDS_P1;SDS_P2;PMS_P1;PMS_P2;Temp;Humidity;BMP_temperature;BMP_pressure;BME280_temperature;BME280_humidity;BME280_pressure;Samples;Min_cycle;Max_cycle;Signal;HPM_P1;HPM_P2
2022/04/28 00:01:18;;;;;;;11.85;8.45;;;;;;;4.91;91.81;99602.22;4221741;28;20048;-72
2022/04/28 00:03:18;;;;;;;11.60;7.18;;;;;;;4.86;93.37;99614.13;4225887;27;20040;-73
2022/04/28 00:05:19;;;;;;;10.20;7.68;;;;;;;4.82;93.56;99607.66;4221176;27;20043;-72
2022/04/28 00:07:19;;;;;;;11.82;8.07;;;;;;;4.70;93.56;99616.44;4220116;28;20476;-72
2022/04/28 00:09:20;;;;;;;12.18;8.15;;;;;;;4.62;93.78;99605.41;4221307;28;20074;-72
2022/04/28 00:11:20;;;;;;;11.85;8.68;;;;;;;4.53;95.32;99607.28;4227157;27;20039;-73
2022/04/28 00:13:20;;;;;;;9.25;7.28;;;;;;;4.50;96.17;99608.72;4220727;28;20460;-72
2022/04/28 00:15:21;;;;;;;11.07;7.85;;;;;;;4.54;94.05;99612.44;4221485;28;20115;-72
2022/04/28 00:17:21;;;;;;;10.95;7.85;;;;;;;4.50;96.04;99611.44;4223748;27;20483;-72
2022/04/28 00:19:21;;;;;;;10.27;7.03;;;;;;;4.50;96.02;99606.78;4220888;28;20035;-72
2022/04/28 00:21:22;;;;;;;9.50;6.82;;;;;;;4.56;93.86;99607.47;4220882;28;20044;-73
2022/04/28 00:23:22;;;;;;;11.85;8.25;;;;;;;4.53;93.44;99604.53;4221091;28;20044;-73
2022/04/28 00:25:23;;;;;;;10.15;7.15;;;;;;;4.53;93.41;99608.09;4221105;28;20039;-72
2022/04/28 00:27:23;;;;;;;12.88;6.90;;;;;;;4.49;93.80;99605.16;4221718;27;20082;-73
2022/04/28 00:29:24;;;;;;;10.02;7.38;;;;;;;4.44;93.65;99610.75;4221059;28;20042;-72
2022/04/28 00:31:24;;;;;;;11.60;8.65;;;;;;;4.41;95.15;99607.84;4227243;27;20035;-72
2022/04/28 00:33:24;;;;;;;12.00;8.13;;;;;;;4.43;97.49;99608.31;4221154;28;20050;-73
2022/04/28 00:35:25;;;;;;;12.00;9.02;;;;;;;4.40;97.96;99603.47;4220769;28;20043;-73
2022/04/28 00:37:25;;;;;;;11.43;8.00;;;;;;;4.40;97.62;99606.22;4220106;27;20112;-72
2022/04/28 00:39:26;;;;;;;10.45;7.47;;;;;;;4.38;97.22;99608.44;4226562;27;20035;-72
2022/04/28 00:41:26;;;;;;;12.05;7.95;;;;;;;4.35;97.16;99606.31;4224341;27;20142;-72
2022/04/28 00:43:30;;;;;;;11.95;8.02;;;;;;;4.30;97.61;99606.44;4220656;27;20040;-73
2022/04/28 00:45:30;;;;;;;9.40;7.63;;;;;;;4.26;98.54;99605.44;4220641;28;20061;-73
2022/04/28 00:52:08;;;;;;;12.30;8.85;;;;;;;4.31;96.23;99600.66;4220069;28;20474;-72
2022/04/28 00:54:08;;;;;;;10.82;7.68;;;;;;;4.25;96.53;99599.16;4221956;27;20035;-72
2022/04/28 00:56:12;;;;;;;12.10;8.70;;;;;;;4.25;95.74;99601.91;4219864;28;20046;-73
2022/04/28 00:58:12;;;;;;;10.57;7.55;;;;;;;4.20;95.19;99600.06;4221577;27;20463;-72
2022/04/28 01:00:13;;;;;;;12.57;8.13;;;;;;;4.21;96.03;99606.34;4231028;27;20023;-72
2022/04/28 01:02:17;;;;;;;11.85;7.95;;;;;;;4.28;95.14;99604.00;4220692;28;20035;-72
2022/04/28 01:04:17;;;;;;;11.82;8.13;;;;;;;4.33;95.16;99606.63;4220029;28;20421;-73
2022/04/28 01:06:17;;;;;;;10.75;8.13;;;;;;;4.35;95.10;99598.91;4221109;27;20036;-72
2022/04/28 01:08:18;;;;;;;12.68;8.35;;;;;;;4.35;94.80;99598.09;4219793;27;20027;-73
2022/04/28 01:10:18;;;;;;;10.48;8.43;;;;;;;4.32;96.37;99599.53;4220266;27;20019;-72
2022/04/28 01:12:20;;;;;;;11.82;8.35;;;;;;;4.27;97.67;99607.88;4220206;28;20367;-72
2022/04/28 01:14:21;;;;;;;11.95;8.85;;;;;;;4.22;97.50;99616.22;4221064;27;20453;-72
2022/04/28 01:16:21;;;;;;;13.13;8.77;;;;;;;4.10;96.87;99602.22;4220367;27;20046;-72
2022/04/28 01:18:22;;;;;;;10.68;8.13;;;;;;;4.04;97.87;99604.25;4224010;27;20115;-72
2022/04/28 01:20:22;;;;;;;14.80;10.50;;;;;;;4.00;97.63;99608.75;4220175;28;20047;-72
2022/04/28 01:22:25;;;;;;;12.63;9.38;;;;;;;3.95;95.67;99612.41;4228758;27;20036;-72
2022/04/28 01:24:26;;;;;;;15.02;9.32;;;;;;;3.88;96.16;99616.66;4220443;28;20093;-72
2022/04/28 01:26:27;;;;;;;13.02;9.07;;;;;;;3.76;97.31;99614.44;4220270;27;20035;-72
2022/04/28 01:28:28;;;;;;;12.30;9.15;;;;;;;3.65;98.13;99613.84;4219487;28;20391;-72
2022/04/28 01:30:29;;;;;;;14.40;9.73;;;;;;;3.57;98.64;99609.09;4219618;28;20035;-72
2022/04/28 01:32:29;;;;;;;12.98;9.30;;;;;;;3.53;99.18;99612.72;4219683;28;20415;-72
2022/04/28 01:34:30;;;;;;;13.07;9.65;;;;;;;3.43;100.00;99613.75;4220142;28;20043;-72
2022/04/28 01:36:31;;;;;;;12.18;9.52;;;;;;;3.37;100.00;99615.75;4219712;28;20162;-73
2022/04/28 01:38:32;;;;;;;12.75;8.75;;;;;;;3.30;100.00;99612.59;4219848;27;20035;-72
2022/04/28 01:40:33;;;;;;;14.95;9.38;;;;;;;3.26;100.00;99610.78;4226680;27;20042;-72
2022/04/28 01:42:33;;;;;;;13.32;9.45;;;;;;;3.22;100.00;99615.22;4219968;28;20047;-72
2022/04/28 01:44:34;;;;;;;12.85;8.88;;;;;;;3.20;100.00;99615.53;4225772;27;20058;-72
2022/04/28 01:46:34;;;;;;;14.43;9.43;;;;;;;3.16;100.00;99621.94;4224458;27;20074;-72
2022/04/28 01:48:34;;;;;;;13.88;9.65;;;;;;;3.14;100.00;99626.88;4218405;28;20039;-72
2022/04/28 01:50:35;;;;;;;13.60;9.07;;;;;;;3.14;100.00;99608.53;4219738;27;20398;-72
2022/04/28 01:54:58;;;;;;;12.60;8.70;;;;;;;3.18;98.45;99612.31;4220006;28;20268;-72
2022/04/28 01:56:58;;;;;;;13.20;8.75;;;;;;;3.21;97.67;99614.41;4218866;28;20035;-72
2022/04/28 01:58:59;;;;;;;14.10;8.93;;;;;;;3.22;97.05;99623.44;4222133;28;20455;-72
2022/04/28 02:01:00;;;;;;;12.27;8.07;;;;;;;3.22;96.78;99626.16;4225922;27;20066;-72
2022/04/28 02:03:00;;;;;;;11.60;8.25;;;;;;;3.26;96.43;99630.75;4225236;27;20039;-72
2022/04/28 02:05:02;;;;;;;11.48;7.55;;;;;;;3.27;96.37;99615.97;4225001;27;20036;-72
2022/04/28 02:07:03;;;;;;;13.43;9.07;;;;;;;3.27;96.00;99623.34;4224946;27;21138;-72
2022/04/28 02:09:03;;;;;;;13.38;7.70;;;;;;;3.28;96.52;99622.22;4225146;27;20032;-72
2022/04/28 02:11:03;;;;;;;13.57;8.95;;;;;;;3.19;94.86;99621.31;4224721;27;20027;-72
2022/04/28 02:13:04;;;;;;;16.35;8.88;;;;;;;3.13;95.40;99617.03;4225474;27;20082;-72
2022/04/28 02:15:04;;;;;;;12.38;8.98;;;;;;;3.03;96.43;99623.50;4225264;27;20123;-72
2022/04/28 02:17:06;;;;;;;13.52;8.27;;;;;;;2.94;96.64;99611.63;4224123;27;20131;-72
2022/04/28 02:19:06;;;;;;;12.15;8.68;;;;;;;2.91;96.08;99621.25;4226528;27;20058;-72
2022/04/28 02:21:06;;;;;;;12.70;8.48;;;;;;;2.79;96.76;99627.19;4233832;27;20031;-72
2022/04/28 02:23:07;;;;;;;10.45;7.97;;;;;;;2.71;97.51;99618.84;4233574;27;20035;-72
2022/04/28 02:25:08;;;;;;;10.07;7.32;;;;;;;2.69;98.53;99623.81;4226460;27;20039;-72
2022/04/28 02:27:08;;;;;;;13.57;7.68;;;;;;;2.66;98.52;99627.16;4224678;27;20083;-72
2022/04/28 02:29:09;;;;;;;11.35;7.75;;;;;;;2.65;98.02;99629.06;4224875;27;20047;-72
2022/04/28 02:31:09;;;;;;;12.07;7.50;;;;;;;2.63;98.99;99628.53;4225147;27;20071;-72
2022/04/28 02:33:09;;;;;;;12.98;8.27;;;;;;;2.64;98.67;99629.34;4225085;27;20297;-72
2022/04/28 02:35:09;;;;;;;12.05;8.25;;;;;;;2.60;98.65;99629.16;4224985;27;20051;-72
2022/04/28 02:37:10;;;;;;;13.13;8.50;;;;;;;2.58;99.77;99633.28;4224348;27;20044;-72
2022/04/28 02:39:10;;;;;;;12.32;7.75;;;;;;;2.52;99.20;99627.91;4229819;27;20039;-72
2022/04/28 02:41:11;;;;;;;14.07;8.95;;;;;;;2.45;99.14;99635.66;4224990;27;20550;-72
2022/04/28 02:43:11;;;;;;;10.57;7.63;;;;;;;2.38;99.22;99640.66;4227979;27;20435;-72
2022/04/28 02:45:12;;;;;;;13.00;8.13;;;;;;;2.37;99.22;99640.97;4224492;27;20102;-72
2022/04/28 02:47:12;;;;;;;14.65;8.43;;;;;;;2.37;99.23;99643.69;4224859;27;20043;-72
2022/04/28 02:49:13;;;;;;;10.48;7.80;;;;;;;2.37;98.71;99638.22;4228064;27;20031;-72
2022/04/28 02:51:13;;;;;;;12.18;7.22;;;;;;;2.40;99.11;99646.66;4228629;27;20039;-72
2022/04/28 02:53:14;;;;;;;12.02;8.30;;;;;;;2.42;98.34;99643.63;4232852;27;20467;-72
2022/04/28 02:55:14;;;;;;;12.82;7.85;;;;;;;2.40;98.80;99645.81;4225056;27;20521;-72
2022/04/28 02:57:14;;;;;;;12.93;8.18;;;;;;;2.45;98.93;99645.75;4223281;27;20059;-72
2022/04/28 02:59:15;;;;;;;11.20;7.75;;;;;;;2.43;97.78;99642.53;4224995;27;20467;-72
2022/04/28 03:01:15;;;;;;;11.40;7.60;;;;;;;2.46;98.19;99640.00;4228773;27;20089;-72
2022/04/28 03:03:15;;;;;;;10.00;7.70;;;;;;;2.51;97.21;99644.59;4226621;27;20483;-72
2022/04/28 03:05:16;;;;;;;14.10;8.43;;;;;;;2.46;96.58;99641.91;4229682;27;20047;-72
2022/04/28 03:11:54;;;;;;;12.98;8.02;;;;;;;2.28;98.80;99635.34;4228561;27;20046;-72
2022/04/28 03:13:56;;;;;;;13.95;8.23;;;;;;;2.27;98.67;99641.13;4222053;28;20047;-72
2022/04/28 03:15:56;;;;;;;12.40;8.43;;;;;;;2.18;99.52;99641.78;4221930;27;20245;-72
2022/04/28 03:17:57;;;;;;;10.30;7.97;;;;;;;2.19;98.63;99643.41;4227632;27;20138;-72
2022/04/28 03:19:57;;;;;;;10.20;8.00;;;;;;;2.19;99.52;99645.31;4223022;27;20036;-72
2022/04/28 03:21:57;;;;;;;14.15;8.20;;;;;;;2.21;100.00;99649.38;4228703;27;20046;-72
2022/04/28 03:23:58;;;;;;;15.73;8.93;;;;;;;2.22;99.33;99659.19;4221953;27;20371;-72
2022/04/28 03:25:58;;;;;;;13.85;8.05;;;;;;;2.22;99.10;99653.72;4224855;27;20207;-72
2022/04/28 03:27:58;;;;;;;13.18;8.88;;;;;;;2.21;98.00;99656.75;4224886;27;20520;-72
2022/04/28 03:29:59;;;;;;;13.45;8.70;;;;;;;2.21;98.27;99654.84;4221284;27;20047;-72
2022/04/28 03:31:59;;;;;;;11.27;8.00;;;;;;;2.22;97.14;99653.72;4221708;27;20043;-72
2022/04/28 03:33:59;;;;;;;12.85;8.07;;;;;;;2.23;97.93;99643.59;4221816;28;20044;-72
2022/04/28 03:36:00;;;;;;;12.10;8.05;;;;;;;2.22;96.96;99642.81;4221763;28;20383;-72
2022/04/28 03:38:01;;;;;;;13.20;8.20;;;;;;;2.23;98.12;99651.81;4227316;27;20036;-72
2022/04/28 03:40:01;;;;;;;12.25;8.35;;;;;;;2.19;97.47;99645.31;4221666;28;20802;-72
2022/04/28 03:42:02;;;;;;;11.93;8.70;;;;;;;2.15;96.71;99649.72;4227597;27;20024;-72
2022/04/28 03:44:03;;;;;;;14.20;8.73;;;;;;;2.16;96.99;99657.66;4221976;27;20138;-72
2022/04/28 03:46:03;;;;;;;11.57;7.18;;;;;;;2.26;97.55;99651.22;4222009;28;20027;-72
2022/04/28 03:48:04;;;;;;;11.82;8.13;;;;;;;2.34;95.57;99656.03;4220420;27;20046;-72
2022/04/28 03:50:06;;;;;;;11.80;8.50;;;;;;;2.42;95.69;99649.91;4221442;28;20035;-72
2022/04/28 03:52:06;;;;;;;11.97;8.80;;;;;;;2.42;95.63;99641.72;4221562;27;20364;-72
2022/04/28 03:54:07;;;;;;;13.55;8.50;;;;;;;2.45;96.27;99652.03;4221881;28;20039;-72
2022/04/28 03:56:07;;;;;;;11.30;8.98;;;;;;;2.47;96.50;99655.28;4221278;28;20027;-72
2022/04/28 03:58:07;;;;;;;13.18;9.00;;;;;;;2.43;96.42;99651.53;4220088;28;20783;-72
2022/04/28 04:00:08;;;;;;;14.18;8.88;;;;;;;2.36;97.71;99653.00;4225923;27;20076;-72
2022/04/28 04:02:08;;;;;;;15.18;9.25;;;;;;;2.31;97.39;99650.34;4229707;27;20028;-72
2022/04/28 04:04:09;;;;;;;12.52;8.48;;;;;;;2.31;96.70;99648.41;4221227;28;20019;-72
2022/04/28 04:06:09;;;;;;;11.20;8.02;;;;;;;2.31;97.92;99655.78;4221003;28;20128;-72
2022/04/28 04:08:09;;;;;;;13.65;9.15;;;;;;;2.27;98.64;99655.59;4220567;28;20042;-72
2022/04/28 04:10:11;;;;;;;13.25;8.70;;;;;;;2.33;97.98;99659.88;4221330;27;20282;-72
2022/04/28 04:12:11;;;;;;;12.03;8.00;;;;;;;2.35;97.12;99662.31;4220960;28;20027;-72
2022/04/28 04:14:12;;;;;;;12.85;8.68;;;;;;;2.34;98.25;99663.41;4221595;28;20027;-72
2022/04/28 04:16:13;;;;;;;14.15;8.38;;;;;;;2.29;98.10;99669.75;4220553;27;20106;-72
2022/04/28 04:18:13;;;;;;;12.38;8.73;;;;;;;2.25;99.31;99669.53;4220125;28;20507;-72
2022/04/28 04:20:13;;;;;;;14.07;9.13;;;;;;;2.24;99.18;99673.38;4221030;28;20027;-72
2022/04/28 04:22:14;;;;;;;14.68;9.00;;;;;;;2.21;100.00;99673.13;4220878;28;20028;-72
2022/04/28 04:24:15;;;;;;;14.55;9.55;;;;;;;2.18;100.00;99676.47;4220762;27;20032;-72
2022/04/28 04:26:16;;;;;;;18.35;9.32;;;;;;;2.23;99.88;99682.69;4221014;28;20334;-72
2022/04/28 04:28:16;;;;;;;14.80;8.82;;;;;;;2.23;100.00;99679.09;4220570;28;20047;-72
2022/04/28 04:32:36;;;;;;;14.23;8.80;;;;;;;2.32;97.90;99676.53;4220859;28;20117;-72
2022/04/28 04:34:36;;;;;;;18.05;9.43;;;;;;;2.34;97.95;99686.06;4227240;27;20451;-72
2022/04/28 04:36:36;;;;;;;14.43;9.07;;;;;;;2.38;99.58;99680.81;4223464;27;20067;-72
2022/04/28 04:38:36;;;;;;;11.55;8.60;;;;;;;2.40;98.73;99679.44;4220345;28;20430;-72
2022/04/28 04:40:37;;;;;;;16.25;9.15;;;;;;;2.50;97.75;99689.41;4221259;28;20035;-72
2022/04/28 04:42:37;;;;;;;16.15;9.52;;;;;;;2.51;99.33;99678.19;4220123;27;20058;-72
2022/04/28 04:44:38;;;;;;;15.18;10.15;;;;;;;2.53;99.32;99700.53;4220668;28;20043;-72
2022/04/28 04:46:39;;;;;;;11.00;8.13;;;;;;;2.53;98.69;99697.00;4220375;27;20082;-72
2022/04/28 04:48:39;;;;;;;13.98;9.52;;;;;;;2.59;98.26;99701.28;4220199;27;20460;-72
2022/04/28 04:50:40;;;;;;;13.80;9.23;;;;;;;2.64;98.03;99698.47;4225788;27;20122;-72
2022/04/28 04:52:40;;;;;;;12.88;9.25;;;;;;;2.68;97.77;99704.97;4220687;28;20142;-72
2022/04/28 04:54:40;;;;;;;12.73;9.27;;;;;;;2.74;97.55;99712.00;4220604;27;20062;-72
2022/04/28 04:56:41;;;;;;;19.40;9.45;;;;;;;2.75;97.97;99699.16;4155343;27;20039;-72
2022/04/28 04:58:41;;;;;;;14.32;9.13;;;;;;;2.73;97.80;99701.34;4221862;27;20040;-72
2022/04/28 05:00:41;;;;;;;12.68;8.88;;;;;;;2.71;97.70;99709.84;4225015;27;20074;-72
2022/04/28 05:02:42;;;;;;;12.18;8.57;;;;;;;2.69;98.51;99709.34;4220387;28;20383;-72
2022/04/28 05:04:42;;;;;;;13.43;9.70;;;;;;;2.70;99.00;99715.63;4222166;27;20035;-72
2022/04/28 05:06:42;;;;;;;13.95;9.77;;;;;;;2.73;98.87;99707.66;4220050;28;20344;-72
2022/04/28 05:08:43;;;;;;;13.18;9.20;;;;;;;2.80;98.22;99709.97;4220611;27;20493;-72
2022/04/28 05:10:43;;;;;;;13.88;9.38;;;;;;;2.87;98.17;99709.63;4226310;27;20243;-72
2022/04/28 05:12:43;;;;;;;16.95;11.07;;;;;;;2.96;97.68;99713.31;4219835;28;20046;-72
2022/04/28 05:14:45;;;;;;;13.55;9.00;;;;;;;2.97;97.12;99713.00;4220138;27;20040;-72
2022/04/28 05:16:46;;;;;;;15.32;10.07;;;;;;;2.97;98.72;99720.38;4219300;28;20039;-72
2022/04/28 05:18:46;;;;;;;13.80;10.15;;;;;;;2.98;99.80;99725.59;4219982;28;20049;-72
2022/04/28 05:20:48;;;;;;;16.35;11.20;;;;;;;3.00;100.00;99728.00;4220048;28;20305;-72
2022/04/28 05:22:48;;;;;;;14.93;10.93;;;;;;;3.00;100.00;99723.34;4219702;27;20509;-72
2022/04/28 05:24:49;;;;;;;13.75;10.07;;;;;;;3.06;99.58;99721.34;4219972;28;20050;-72
2022/04/28 05:26:49;;;;;;;13.88;10.45;;;;;;;3.14;98.90;99720.66;4222208;27;20292;-73
2022/04/28 05:28:49;;;;;;;20.70;10.32;;;;;;;3.19;99.24;99725.25;4220211;28;20109;-72
2022/04/28 05:30:50;;;;;;;15.77;10.27;;;;;;;3.20;99.63;99727.66;4223741;27;20416;-72
2022/04/28 05:32:50;;;;;;;16.02;10.43;;;;;;;3.22;99.16;99724.63;4219915;28;20318;-72
2022/04/28 05:34:50;;;;;;;16.15;10.05;;;;;;;3.29;96.69;99716.84;4219264;27;20035;-72
2022/04/28 05:36:51;;;;;;;16.23;10.57;;;;;;;3.38;96.04;99718.59;4218927;28;20096;-72
2022/04/28 05:38:51;;;;;;;14.10;9.60;;;;;;;3.51;97.06;99721.69;4219717;28;20040;-72
2022/04/28 05:40:51;;;;;;;16.33;10.32;;;;;;;3.62;96.41;99710.22;4219885;28;20039;-72
2022/04/28 05:47:40;;;;;;;14.90;11.48;;;;;;;3.82;97.10;99716.47;4225748;27;20067;-72
2022/04/28 05:49:41;;;;;;;17.77;11.02;;;;;;;3.84;96.57;99731.47;4220947;28;20035;-72
2022/04/28 05:51:41;;;;;;;13.32;10.23;;;;;;;3.89;96.79;99725.09;4219417;28;20089;-72
2022/04/28 05:53:41;;;;;;;20.80;12.43;;;;;;;3.91;96.27;99726.41;4219710;28;20471;-72
2022/04/28 05:55:42;;;;;;;14.75;10.23;;;;;;;3.94;96.64;99730.44;4219531;28;20047;-72
2022/04/28 05:57:42;;;;;;;15.65;10.75;;;;;;;3.98;97.70;99725.19;4218010;28;20817;-72
2022/04/28 05:59:43;;;;;;;14.20;10.18;;;;;;;4.04;97.32;99729.44;4219627;27;20151;-72
2022/04/28 06:01:43;;;;;;;14.52;10.05;;;;;;;4.08;96.58;99724.97;4225346;27;20051;-72
2022/04/28 06:03:44;;;;;;;15.65;11.75;;;;;;;4.18;98.16;99736.53;4219651;27;20130;-72
2022/04/28 06:05:44;;;;;;;18.60;11.80;;;;;;;4.28;99.34;99734.69;4219732;28;20035;-72
2022/04/28 06:07:45;;;;;;;17.63;11.82;;;;;;;4.40;98.46;99743.22;4218835;28;20078;-72
2022/04/28 06:09:46;;;;;;;18.45;11.40;;;;;;;4.55;97.31;99742.06;4221451;28;20130;-72
2022/04/28 06:11:46;;;;;;;20.75;12.43;;;;;;;4.67;99.62;99739.63;4220865;28;20040;-72
2022/04/28 06:13:46;;;;;;;16.55;12.73;;;;;;;4.78;99.67;99739.06;4223676;27;20051;-72
2022/04/28 06:15:47;;;;;;;15.57;11.13;;;;;;;4.90;96.53;99735.81;4219713;28;20063;-72
2022/04/28 06:17:47;;;;;;;14.88;10.95;;;;;;;5.10;96.05;99733.69;4218811;28;20048;-72
2022/04/28 06:19:48;;;;;;;19.42;11.15;;;;;;;5.22;94.77;99739.44;4219632;28;20048;-72
2022/04/28 06:21:48;;;;;;;16.73;11.63;;;;;;;5.42;95.38;99736.19;4219545;28;20083;-72
2022/04/28 06:23:48;;;;;;;14.55;11.43;;;;;;;5.58;95.45;99742.91;4219192;28;20473;-72
2022/04/28 06:25:49;;;;;;;23.67;14.40;;;;;;;5.78;98.67;99738.81;4219827;28;20894;-72
2022/04/28 06:27:50;;;;;;;20.20;13.73;;;;;;;5.92;98.30;99741.50;4222944;27;20062;-72
2022/04/28 06:29:52;;;;;;;15.67;11.50;;;;;;;5.95;95.61;99743.59;4219500;28;20275;-72
2022/04/28 06:31:53;;;;;;;18.67;12.25;;;;;;;5.92;94.41;99744.25;4218703;28;20128;-72
2022/04/28 06:33:53;;;;;;;17.17;11.80;;;;;;;5.88;94.12;99741.28;4219570;28;20509;-72
2022/04/28 06:35:55;;;;;;;18.85;13.40;;;;;;;5.86;94.02;99742.72;4219569;28;20099;-72
2022/04/28 06:37:55;;;;;;;16.30;11.88;;;;;;;5.88;95.44;99743.22;4218592;28;20071;-72
2022/04/28 06:39:55;;;;;;;19.42;12.38;;;;;;;5.93;95.84;99754.09;4219944;28;20109;-72
2022/04/28 06:41:56;;;;;;;15.95;11.13;;;;;;;5.99;94.81;99752.84;4222999;27;20131;-72
2022/04/28 06:43:56;;;;;;;16.00;11.50;;;;;;;6.04;93.82;99757.38;4226227;28;20076;-72
2022/04/28 06:46:15;;;;;;;16.65;12.15;;;;;;;6.13;93.26;99755.50;4220664;27;20142;-72
2022/04/28 06:48:15;;;;;;;21.50;13.40;;;;;;;6.27;93.16;99749.88;4227488;27;20048;-72
2022/04/28 06:50:15;;;;;;;18.20;11.75;;;;;;;6.47;92.79;99755.59;4223142;27;20762;-72
2022/04/28 06:52:16;;;;;;;16.13;11.50;;;;;;;6.62;91.50;99750.75;4223020;27;20035;-72
2022/04/28 06:54:16;;;;;;;16.90;11.45;;;;;;;6.65;90.29;99750.13;4222315;27;20356;-72
2022/04/28 06:56:17;;;;;;;18.90;11.85;;;;;;;6.72;90.94;99754.03;4227056;27;20039;-72
2022/04/28 06:58:17;;;;;;;24.38;13.15;;;;;;;6.79;91.79;99753.56;4221477;28;20118;-72
2022/04/28 07:00:18;;;;;;;19.55;12.88;;;;;;;6.88;92.07;99764.56;4222542;28;20398;-72
2022/04/28 07:02:20;;;;;;;18.00;13.15;;;;;;;6.97;91.55;99759.88;4222466;27;20023;-72
2022/04/28 07:04:20;;;;;;;16.90;12.82;;;;;;;7.03;91.55;99758.56;4224177;27;20111;-72
2022/04/28 07:06:20;;;;;;;20.42;13.73;;;;;;;7.09;92.09;99767.47;4221292;27;20134;-72
2022/04/28 07:08:21;;;;;;;17.42;12.15;;;;;;;7.13;91.98;99763.78;4221386;27;20069;-72
2022/04/28 07:10:21;;;;;;;19.65;13.10;;;;;;;7.20;92.07;99771.53;4222276;28;20379;-72
2022/04/28 07:12:22;;;;;;;16.08;12.27;;;;;;;7.24;93.14;99761.50;4222283;28;20379;-72
2022/04/28 07:14:22;;;;;;;17.63;12.90;;;;;;;7.29;93.54;99758.59;4222268;27;20046;-72
2022/04/28 07:16:22;;;;;;;18.67;12.73;;;;;;;7.38;93.15;99759.38;4222485;27;20052;-72
2022/04/28 07:18:23;;;;;;;24.38;13.30;;;;;;;7.40;93.77;99764.56;4223203;27;20089;-72
2022/04/28 07:20:23;;;;;;;20.70;12.27;;;;;;;7.44;93.43;99771.03;4228747;27;20043;-72
2022/04/28 07:22:23;;;;;;;17.27;12.48;;;;;;;7.49;93.45;99770.88;4222737;27;20047;-72
2022/04/28 07:24:24;;;;;;;20.67;13.32;;;;;;;7.56;94.82;99768.44;4221844;27;20423;-72
2022/04/28 07:26:24;;;;;;;20.13;14.00;;;;;;;7.57;94.33;99770.03;4223144;27;20578;-72
2022/04/28 07:28:25;;;;;;;22.00;13.73;;;;;;;7.56;94.23;99766.47;4226445;27;20074;-72
2022/04/28 07:30:26;;;;;;;19.95;13.52;;;;;;;7.60;94.85;99770.19;4223431;27;20038;-72
2022/04/28 07:32:26;;;;;;;18.20;13.63;;;;;;;7.72;95.26;99774.22;4226608;27;20424;-72
2022/04/28 07:34:26;;;;;;;16.58;12.23;;;;;;;7.79;90.88;99777.31;4221009;28;20438;-72
2022/04/28 07:36:27;;;;;;;20.73;12.45;;;;;;;7.91;90.58;99784.88;4221942;27;20142;-72
2022/04/28 07:38:27;;;;;;;18.25;12.90;;;;;;;8.03;93.36;99782.25;4221167;28;20403;-72
2022/04/28 07:40:27;;;;;;;19.55;13.60;;;;;;;8.09;94.40;99784.47;4221154;28;20044;-72
2022/04/28 07:42:28;;;;;;;17.70;12.32;;;;;;;8.19;94.07;99786.06;4221858;28;20039;-72
2022/04/28 07:44:28;;;;;;;23.50;13.52;;;;;;;8.25;90.40;99781.19;4221333;28;20112;-72
2022/04/28 07:46:29;;;;;;;18.80;13.30;;;;;;;8.44;87.00;99789.91;4221351;28;20134;-72
2022/04/28 07:48:30;;;;;;;20.60;13.63;;;;;;;8.61;87.25;99787.06;4220948;27;20074;-72
2022/04/28 07:50:30;;;;;;;14.55;11.70;;;;;;;8.77;88.23;99790.06;4221396;28;20039;-72
2022/04/28 07:52:31;;;;;;;24.17;15.05;;;;;;;8.94;91.84;99786.38;4225467;27;20101;-72
2022/04/28 07:54:31;;;;;;;18.98;13.38;;;;;;;9.12;91.12;99787.06;4223105;27;20479;-72
2022/04/28 07:56:31;;;;;;;17.73;13.15;;;;;;;9.27;90.42;99790.00;4223770;27;20047;-72
2022/04/28 07:58:32;;;;;;;18.48;12.68;;;;;;;9.39;87.16;99789.25;4221790;27;20050;-72
2022/04/28 08:00:33;;;;;;;22.55;13.27;;;;;;;9.49;87.57;99791.59;4219572;28;20054;-72
2022/04/28 08:02:36;;;;;;;19.13;13.90;;;;;;;9.62;90.32;99786.94;4221612;28;20054;-72
2022/04/28 08:04:36;;;;;;;18.08;13.60;;;;;;;9.75;87.16;99785.81;4233999;27;20119;-72
2022/04/28 08:06:36;;;;;;;16.27;11.85;;;;;;;9.81;84.17;99783.66;4220512;28;20075;-72
2022/04/28 08:08:37;;;;;;;18.10;12.50;;;;;;;9.81;85.46;99786.41;4219989;28;20243;-72
2022/04/28 08:10:37;;;;;;;15.13;12.02;;;;;;;9.73;84.33;99787.31;4227572;27;20059;-72
2022/04/28 08:12:37;;;;;;;16.60;12.88;;;;;;;9.68;84.12;99784.75;4220177;28;20044;-72
2022/04/28 08:14:39;;;;;;;19.85;12.88;;;;;;;9.66;83.71;99790.63;4221418;28;20035;-72
2022/04/28 08:16:39;;;;;;;18.88;11.75;;;;;;;9.62;82.91;99792.47;4220734;28;20051;-72
2022/04/28 08:18:40;;;;;;;14.98;11.45;;;;;;;9.69;80.92;99789.16;4220899;28;20035;-72
2022/04/28 08:20:41;;;;;;;15.02;11.27;;;;;;;9.79;79.22;99797.00;4220985;27;20056;-72
2022/04/28 08:22:41;;;;;;;18.70;12.07;;;;;;;9.93;79.32;99794.75;4220982;28;20050;-72
2022/04/28 08:24:41;;;;;;;20.30;11.68;;;;;;;10.02;77.20;99789.94;4221289;27;20044;-72
2022/04/28 08:26:42;;;;;;;20.13;12.10;;;;;;;10.13;77.09;99798.59;4220278;27;20071;-72
2022/04/28 08:28:43;;;;;;;15.43;10.50;;;;;;;10.19;74.60;99793.66;4220679;28;20043;-72
2022/04/28 08:30:43;;;;;;;14.75;10.93;;;;;;;10.20;74.82;99795.28;4223312;27;20047;-72
2022/04/28 08:32:43;;;;;;;17.70;11.25;;;;;;;10.26;76.35;99794.75;4227092;27;20042;-72
2022/04/28 08:34:44;;;;;;;19.48;11.13;;;;;;;10.32;74.47;99804.41;4221047;27;20030;-72
2022/04/28 08:36:45;;;;;;;16.52;10.98;;;;;;;10.46;71.86;99797.75;4222378;27;20093;-72
2022/04/28 08:38:46;;;;;;;17.50;11.73;;;;;;;10.60;74.21;99800.97;4226189;27;20179;-72
2022/04/28 08:40:48;;;;;;;14.93;10.80;;;;;;;10.66;71.06;99803.16;4220939;27;20585;-72
2022/04/28 08:42:49;;;;;;;15.80;11.68;;;;;;;10.66;70.47;99792.06;4218660;27;20039;-72
2022/04/28 08:44:49;;;;;;;16.45;11.68;;;;;;;10.71;72.57;99799.34;4220906;28;20063;-72
2022/04/28 08:46:53;;;;;;;16.85;11.63;;;;;;;10.81;74.21;99806.38;4226431;27;20736;-72
2022/04/28 08:48:55;;;;;;;16.48;11.77;;;;;;;10.95;75.47;99806.84;4220313;28;20383;-72
2022/04/28 08:50:57;;;;;;;14.57;10.95;;;;;;;11.04;72.30;99801.97;4220806;27;20040;-72
2022/04/28 08:52:59;;;;;;;20.98;12.07;;;;;;;11.11;73.51;99793.06;4223797;27;20078;-73
2022/04/28 08:55:00;;;;;;;17.65;12.05;;;;;;;11.28;73.68;99805.84;4228875;27;20221;-72
2022/04/28 08:57:00;;;;;;;14.70;10.65;;;;;;;11.34;70.23;99799.72;4219732;28;20487;-72
2022/04/28 08:59:00;;;;;;;16.10;11.02;;;;;;;11.37;68.46;99795.44;4220471;28;20491;-72
2022/04/28 09:01:01;;;;;;;16.80;11.38;;;;;;;11.36;68.38;99794.63;4221037;28;20902;-72
2022/04/28 09:03:01;;;;;;;14.95;10.32;;;;;;;11.40;67.58;99798.28;4219421;28;20038;-72
2022/04/28 09:05:03;;;;;;;16.90;11.05;;;;;;;11.45;68.32;99803.59;4220721;28;20087;-72
2022/04/28 09:07:07;;;;;;;18.17;11.20;;;;;;;11.52;67.77;99798.25;4220185;27;20467;-72
2022/04/28 09:09:16;;;;;;;16.90;10.55;;;;;;;11.50;64.81;99796.97;4220633;28;20486;-72
2022/04/28 09:11:21;;;;;;;17.52;10.32;;;;;;;11.56;65.05;99795.56;4221429;27;20047;-72
2022/04/28 09:15:41;;;;;;;15.43;10.68;;;;;;;11.70;68.95;99795.19;4221950;27;20418;-72
2022/04/28 09:17:41;;;;;;;14.48;10.75;;;;;;;11.72;66.53;99799.22;4225004;27;20421;-72
2022/04/28 09:19:42;;;;;;;16.42;10.93;;;;;;;11.79;71.02;99798.59;4222358;27;20036;-72
2022/04/28 09:21:42;;;;;;;17.98;10.75;;;;;;;11.92;69.12;99796.63;4219352;28;20078;-72
2022/04/28 09:23:43;;;;;;;15.73;10.68;;;;;;;11.92;64.14;99788.28;4225752;27;20092;-73
2022/04/28 09:25:44;;;;;;;13.80;10.68;;;;;;;12.09;67.39;99790.75;4220903;27;20044;-72
2022/04/28 09:27:48;;;;;;;19.55;10.98;;;;;;;12.12;63.37;99792.78;4219696;28;20409;-72
2022/04/28 09:29:48;;;;;;;16.30;10.25;;;;;;;12.06;63.46;99788.66;4220055;28;20066;-72
2022/04/28 09:31:50;;;;;;;13.02;9.57;;;;;;;12.21;62.61;99795.38;4224464;27;20750;-72
2022/04/28 09:33:51;;;;;;;18.35;11.02;;;;;;;12.28;63.25;99778.94;4219837;27;20054;-72
2022/04/28 09:35:53;;;;;;;15.48;10.30;;;;;;;12.30;62.88;99782.13;4220138;28;20437;-72
2022/04/28 09:37:53;;;;;;;15.77;10.32;;;;;;;12.37;66.18;99785.91;4219026;28;20088;-73
2022/04/28 09:42:30;;;;;;;14.25;10.10;;;;;;;12.44;62.42;99778.94;4220198;28;20566;-72
2022/04/28 09:44:30;;;;;;;16.52;10.77;;;;;;;12.46;62.71;99774.63;4219744;28;20042;-73
2022/04/28 09:46:31;;;;;;;16.48;10.90;;;;;;;12.46;61.04;99780.16;4219109;28;20056;-73
2022/04/28 09:48:32;;;;;;;17.50;10.80;;;;;;;12.46;62.16;99776.59;4219970;28;20047;-72